Time;durP1;ratioP1;P1;durP2;ratioP2;P2;SDS_P1;SDS_P2;PMS_P1;PMS_P2;Temp;Humidity;BMP_temperature;BMP_pressure;BME280_temperature;BME280_humidity;BME280_pressure;Samples;Min_cycle;Max_cycle;Signal;HPM_P1;HPM_P2
2023/07/02 00:00:38;;;;;;;11.75;4.35;;;18.50;99.90;;;;;;5073136;28;20025;-56
2023/07/02 00:03:04;;;;;;;10.05;4.30;;;18.50;99.90;;;;;;5072568;28;20037;-56
2023/07/02 00:05:30;;;;;;;9.40;4.25;;;18.50;99.90;;;;;;5071340;28;20162;-55
2023/07/02 00:07:55;;;;;;;11.95;4.63;;;18.60;99.90;;;;;;5072056;28;20322;-56
2023/07/02 00:10:21;;;;;;;9.20;4.18;;;18.60;99.90;;;;;;5072140;27;20553;-56
2023/07/02 00:12:46;;;;;;;7.72;3.78;;;18.50;99.90;;;;;;5072783;28;20044;-56
2023/07/02 00:15:12;;;;;;;7.88;4.15;;;18.50;99.90;;;;;;5072587;28;20380;-56
2023/07/02 00:17:39;;;;;;;10.65;4.32;;;18.60;99.90;;;;;;5072481;28;20389;-56
2023/07/02 00:20:14;;;;;;;7.78;4.50;;;18.50;99.90;;;;;;5071951;28;20032;-56
2023/07/02 00:22:45;;;;;;;10.35;4.57;;;18.50;99.90;;;;;;5072547;27;20116;-55
2023/07/02 00:25:13;;;;;;;9.23;4.38;;;18.40;99.90;;;;;;5071852;28;20102;-56
2023/07/02 00:27:38;;;;;;;9.40;4.00;;;18.40;99.90;;;;;;5060152;27;20037;-56
2023/07/02 00:30:04;;;;;;;9.90;4.80;;;18.40;99.90;;;;;;5051997;28;20119;-56
2023/07/02 00:32:30;;;;;;;8.02;4.30;;;18.30;99.90;;;;;;5071783;28;20368;-55
2023/07/02 00:34:55;;;;;;;9.25;4.53;;;18.40;99.90;;;;;;5072066;28;20051;-56
2023/07/02 00:37:21;;;;;;;10.18;4.60;;;18.40;99.90;;;;;;5071145;28;20036;-56
2023/07/02 00:39:46;;;;;;;8.60;4.80;;;18.40;99.90;;;;;;5071920;27;20031;-56
2023/07/02 00:42:12;;;;;;;7.72;4.45;;;18.50;99.90;;;;;;5071705;27;20117;-56
2023/07/02 00:44:40;;;;;;;10.05;4.80;;;18.50;99.90;;;;;;5072076;28;20029;-55
2023/07/02 00:47:08;;;;;;;9.98;4.18;;;18.40;99.90;;;;;;5071418;28;20522;-56
2023/07/02 00:49:33;;;;;;;10.27;4.97;;;18.40;99.90;;;;;;5071301;28;20047;-56
2023/07/02 00:51:59;;;;;;;8.85;4.32;;;18.50;99.90;;;;;;5072174;28;20036;-56
2023/07/02 00:54:28;;;;;;;6.85;4.60;;;18.30;99.90;;;;;;5071604;28;20031;-56
2023/07/02 00:56:53;;;;;;;10.18;4.65;;;18.20;99.90;;;;;;5072016;28;20555;-55
2023/07/02 00:59:19;;;;;;;14.25;4.80;;;18.10;99.90;;;;;;5071296;27;20028;-55
2023/07/02 01:01:49;;;;;;;12.45;4.72;;;18.00;99.90;;;;;;5071593;27;20037;-56
2023/07/02 01:04:17;;;;;;;14.52;5.35;;;18.00;99.90;;;;;;5071432;28;20042;-56
2023/07/02 01:06:44;;;;;;;11.73;5.40;;;18.10;99.90;;;;;;5071833;28;20024;-56
2023/07/02 01:09:10;;;;;;;9.93;5.55;;;18.10;99.90;;;;;;5068018;28;20149;-55
2023/07/02 01:11:50;;;;;;;10.20;5.10;;;18.10;99.90;;;;;;5068047;28;20041;-56
2023/07/02 01:14:28;;;;;;;9.95;5.03;;;18.00;99.90;;;;;;5068083;28;20039;-56
2023/07/02 01:16:55;;;;;;;10.80;5.80;;;18.00;99.90;;;;;;5069300;28;20056;-56
2023/07/02 01:19:42;;;;;;;12.70;5.57;;;18.10;99.90;;;;;;5068259;28;20032;-56
2023/07/02 01:22:08;;;;;;;14.82;5.65;;;18.00;99.90;;;;;;5060120;28;20556;-56
2023/07/02 01:24:34;;;;;;;11.02;5.60;;;17.90;99.90;;;;;;5048829;28;20509;-56
2023/07/02 01:27:01;;;;;;;16.73;5.97;;;17.80;99.90;;;;;;5048526;28;20079;-56
2023/07/02 01:29:29;;;;;;;13.77;6.32;;;17.90;99.90;;;;;;5047976;28;20141;-56
2023/07/02 01:31:55;;;;;;;14.63;5.85;;;17.80;99.90;;;;;;5063131;28;20119;-56
2023/07/02 01:34:21;;;;;;;12.30;6.18;;;17.80;99.90;;;;;;5050001;28;20153;-56
2023/07/02 01:36:46;;;;;;;15.05;6.22;;;17.80;99.90;;;;;;5048402;28;20040;-55
2023/07/02 01:39:12;;;;;;;11.30;6.20;;;17.80;99.90;;;;;;5054104;28;20032;-55
2023/07/02 01:41:50;;;;;;;13.07;6.30;;;17.70;99.90;;;;;;5068452;28;20047;-56
2023/07/02 01:44:15;;;;;;;16.20;6.38;;;17.80;99.90;;;;;;5067253;28;20102;-55
2023/07/02 01:46:41;;;;;;;12.13;6.70;;;17.80;99.90;;;;;;5068818;28;20528;-56
2023/07/02 01:49:07;;;;;;;11.07;6.10;;;17.80;99.90;;;;;;5068113;28;20056;-55
2023/07/02 01:51:33;;;;;;;17.25;6.70;;;17.80;99.90;;;;;;5066686;28;20492;-55
2023/07/02 01:54:00;;;;;;;14.48;6.80;;;17.80;99.90;;;;;;5067984;28;20040;-56
2023/07/02 01:56:26;;;;;;;13.27;6.78;;;17.80;99.90;;;;;;5066299;28;20538;-56
2023/07/02 01:58:51;;;;;;;14.90;7.15;;;17.70;99.90;;;;;;5068388;28;20032;-56
2023/07/02 02:01:17;;;;;;;16.25;7.15;;;17.70;99.90;;;;;;5067425;28;20067;-57
2023/07/02 02:03:42;;;;;;;14.50;7.30;;;17.70;99.90;;;;;;5067738;28;20075;-56
2023/07/02 02:06:08;;;;;;;12.88;6.90;;;17.70;99.90;;;;;;5066449;28;20380;-56
2023/07/02 02:08:34;;;;;;;14.40;7.10;;;17.80;99.90;;;;;;5067809;28;20039;-56
2023/07/02 02:11:00;;;;;;;18.30;7.43;;;17.80;99.90;;;;;;5067690;28;20724;-56
2023/07/02 02:13:26;;;;;;;16.80;7.20;;;17.80;99.90;;;;;;5067671;28;20028;-56
2023/07/02 02:15:51;;;;;;;16.45;8.00;;;17.70;99.90;;;;;;5068937;28;20123;-56
2023/07/02 02:18:17;;;;;;;17.55;8.35;;;17.70;99.90;;;;;;5065594;28;20033;-57
2023/07/02 02:20:43;;;;;;;20.77;9.05;;;17.70;99.90;;;;;;5067260;28;20510;-55
2023/07/02 02:23:08;;;;;;;16.23;7.97;;;17.70;99.90;;;;;;5067091;28;20036;-55
2023/07/02 02:25:34;;;;;;;15.40;8.40;;;17.60;99.90;;;;;;5067146;28;20032;-55
2023/07/02 02:27:59;;;;;;;16.33;8.15;;;17.60;99.90;;;;;;5066857;28;20044;-55
2023/07/02 02:30:25;;;;;;;16.63;8.68;;;17.70;99.90;;;;;;5066936;28;20032;-56
2023/07/02 02:32:50;;;;;;;20.50;9.23;;;17.70;99.90;;;;;;5066988;28;20052;-56
2023/07/02 02:35:16;;;;;;;20.50;9.43;;;17.80;99.90;;;;;;5066372;28;20048;-56
2023/07/02 02:37:41;;;;;;;18.20;9.02;;;17.80;99.90;;;;;;5067143;28;20116;-56
2023/07/02 02:40:09;;;;;;;16.15;9.07;;;17.80;99.90;;;;;;5065902;28;20032;-56
2023/07/02 02:42:35;;;;;;;18.13;9.27;;;17.80;99.90;;;;;;5065927;28;20028;-56
2023/07/02 02:45:01;;;;;;;20.35;10.15;;;17.70;99.90;;;;;;5067135;28;20450;-56
2023/07/02 02:47:26;;;;;;;20.40;9.82;;;17.60;99.90;;;;;;5066428;28;20031;-56
2023/07/02 02:49:52;;;;;;;19.83;10.15;;;17.60;99.90;;;;;;5061018;28;20124;-55
2023/07/02 02:52:18;;;;;;;18.80;9.77;;;17.50;99.90;;;;;;5046249;28;20098;-56
2023/07/02 02:54:43;;;;;;;22.73;10.68;;;17.60;99.90;;;;;;5046762;28;20040;-56
2023/07/02 02:57:09;;;;;;;19.85;10.07;;;17.60;99.90;;;;;;5063588;28;20492;-56
2023/07/02 02:59:34;;;;;;;23.17;10.90;;;17.60;99.90;;;;;;5066883;28;20090;-56
2023/07/02 03:02:00;;;;;;;23.70;10.50;;;17.50;99.90;;;;;;5065973;28;20062;-55
2023/07/02 03:04:26;;;;;;;23.77;11.00;;;17.60;99.90;;;;;;5065951;28;20696;-56
2023/07/02 03:06:55;;;;;;;23.73;10.88;;;17.60;99.90;;;;;;5066240;28;20461;-56
2023/07/02 03:09:21;;;;;;;22.08;10.73;;;17.60;99.90;;;;;;5066148;28;21075;-56
2023/07/02 03:11:47;;;;;;;21.88;11.75;;;17.50;99.90;;;;;;5065776;28;20123;-56
2023/07/02 03:14:14;;;;;;;20.90;11.85;;;17.60;99.90;;;;;;5066370;28;20404;-56
2023/07/02 03:16:41;;;;;;;22.00;11.50;;;17.60;99.90;;;;;;5067234;28;20036;-56
2023/07/02 03:19:06;;;;;;;26.77;11.77;;;17.50;99.90;;;;;;5065880;28;20447;-56
2023/07/02 03:21:32;;;;;;;22.98;11.80;;;17.50;99.90;;;;;;5066465;28;20036;-56
2023/07/02 03:23:58;;;;;;;27.65;12.43;;;17.60;99.90;;;;;;5051857;28;20033;-56
2023/07/02 03:26:23;;;;;;;25.30;11.88;;;17.50;99.90;;;;;;5045543;28;20029;-56
2023/07/02 03:28:49;;;;;;;25.17;13.15;;;17.50;99.90;;;;;;5046312;28;20107;-55
2023/07/02 03:31:15;;;;;;;27.75;13.20;;;17.50;99.90;;;;;;5054126;28;20035;-55
2023/07/02 03:33:40;;;;;;;25.08;13.23;;;17.40;99.90;;;;;;5061346;28;20040;-59
2023/07/02 03:36:06;;;;;;;23.65;12.55;;;17.50;99.90;;;;;;5045631;28;20172;-56
2023/07/02 03:38:32;;;;;;;26.77;13.23;;;17.50;99.90;;;;;;5047515;28;20033;-56
2023/07/02 03:40:58;;;;;;;25.70;13.60;;;17.40;99.90;;;;;;5066220;28;20037;-56
2023/07/02 03:43:25;;;;;;;27.92;13.40;;;17.40;99.90;;;;;;5065640;28;20033;-56
2023/07/02 03:45:52;;;;;;;32.33;13.25;;;17.40;99.90;;;;;;5066697;28;20036;-56
2023/07/02 03:48:17;;;;;;;29.45;14.00;;;17.30;99.90;;;;;;5065274;28;20101;-56
2023/07/02 03:50:43;;;;;;;25.58;13.25;;;17.30;99.90;;;;;;5066006;28;20040;-56
2023/07/02 03:53:09;;;;;;;28.00;13.77;;;17.40;99.90;;;;;;5066035;28;20033;-56
2023/07/02 03:55:36;;;;;;;26.75;14.07;;;17.40;99.90;;;;;;5065195;28;20101;-55
2023/07/02 03:58:01;;;;;;;29.58;13.95;;;17.40;99.90;;;;;;5065672;28;20291;-56
2023/07/02 04:00:27;;;;;;;30.33;14.45;;;17.50;99.90;;;;;;5065577;28;20665;-55
2023/07/02 04:02:53;;;;;;;27.13;14.23;;;17.50;99.90;;;;;;5065859;28;20037;-56
2023/07/02 04:05:19;;;;;;;31.08;15.00;;;17.50;99.90;;;;;;5065292;28;20416;-56
2023/07/02 04:07:45;;;;;;;30.67;15.40;;;17.50;99.90;;;;;;5053020;28;20056;-56
2023/07/02 04:10:11;;;;;;;33.90;15.32;;;17.40;99.90;;;;;;5059809;28;20056;-55
2023/07/02 04:12:36;;;;;;;29.10;15.13;;;17.40;99.90;;;;;;5065851;28;20711;-55
2023/07/02 04:15:03;;;;;;;28.63;14.90;;;17.30;99.90;;;;;;5065675;28;20078;-56
2023/07/02 04:17:28;;;;;;;29.00;15.13;;;17.40;99.90;;;;;;5065347;28;20050;-56
2023/07/02 04:19:54;;;;;;;30.27;15.80;;;17.40;99.90;;;;;;5065892;28;20036;-56
2023/07/02 04:22:20;;;;;;;30.77;15.20;;;17.50;99.90;;;;;;5065573;28;20037;-56
2023/07/02 04:24:48;;;;;;;34.40;15.70;;;17.30;99.90;;;;;;5063772;28;20043;-55
2023/07/02 04:27:19;;;;;;;33.50;15.73;;;17.40;99.90;;;;;;5064626;28;20025;-56
2023/07/02 04:29:45;;;;;;;31.58;15.13;;;17.40;99.90;;;;;;5052477;28;20612;-56
2023/07/02 04:32:11;;;;;;;35.70;16.13;;;17.40;99.90;;;;;;5061705;28;20037;-56
2023/07/02 04:34:36;;;;;;;34.25;17.00;;;17.50;99.90;;;;;;5065804;28;20518;-56
2023/07/02 04:37:05;;;;;;;32.13;17.48;;;17.50;99.90;;;;;;5065654;28;20035;-57
2023/07/02 04:39:31;;;;;;;33.50;16.83;;;17.50;99.90;;;;;;5062168;28;20036;-56
2023/07/02 04:41:57;;;;;;;39.53;16.98;;;17.40;99.90;;;;;;5045386;28;20036;-56
2023/07/02 04:44:29;;;;;;;33.92;16.33;;;17.50;99.90;;;;;;5067972;28;20044;-56
2023/07/02 04:46:59;;;;;;;29.17;15.70;;;17.50;99.90;;;;;;5068878;28;20037;-56
2023/07/02 04:49:25;;;;;;;36.10;17.65;;;17.50;99.90;;;;;;5068772;28;20032;-56
2023/07/02 04:51:53;;;;;;;30.75;16.17;;;17.60;99.90;;;;;;5068767;28;20089;-56
2023/07/02 04:54:21;;;;;;;34.83;17.77;;;17.60;99.90;;;;;;5068882;28;20040;-56
2023/07/02 04:56:48;;;;;;;31.38;17.02;;;17.70;99.90;;;;;;5068653;28;20033;-56
2023/07/02 04:59:14;;;;;;;31.70;16.38;;;17.60;99.90;;;;;;5068485;28;20147;-55
2023/07/02 05:01:40;;;;;;;32.95;18.00;;;17.70;99.90;;;;;;5068054;28;20040;-56
2023/07/02 05:04:06;;;;;;;36.00;17.52;;;17.60;99.90;;;;;;5068407;28;20385;-56
2023/07/02 05:06:31;;;;;;;33.13;17.83;;;17.60;99.90;;;;;;5068769;28;20062;-55
2023/07/02 05:08:57;;;;;;;30.88;16.77;;;17.70;99.90;;;;;;5068947;28;20033;-58
2023/07/02 05:11:23;;;;;;;33.30;17.67;;;17.60;99.90;;;;;;5068228;28;20404;-56
2023/07/02 05:13:48;;;;;;;35.97;18.45;;;17.70;99.90;;;;;;5068400;28;20396;-56
2023/07/02 05:16:14;;;;;;;34.10;17.88;;;17.70;99.90;;;;;;5069425;28;20555;-56
2023/07/02 05:18:40;;;;;;;40.53;18.67;;;17.80;99.90;;;;;;5068783;28;20118;-56
2023/07/02 05:21:06;;;;;;;35.83;18.25;;;17.80;99.90;;;;;;5068517;28;20030;-57
2023/07/02 05:23:31;;;;;;;34.30;17.38;;;17.90;99.90;;;;;;5068021;28;20037;-56
2023/07/02 05:25:57;;;;;;;35.65;18.35;;;18.00;99.90;;;;;;5067547;28;20188;-56
2023/07/02 05:28:24;;;;;;;34.83;18.40;;;18.00;99.90;;;;;;5068131;28;20033;-56
2023/07/02 05:30:50;;;;;;;35.65;17.50;;;17.90;99.90;;;;;;5068342;28;20037;-56
2023/07/02 05:33:16;;;;;;;33.78;17.63;;;17.90;99.90;;;;;;5067782;28;20369;-56
2023/07/02 05:35:41;;;;;;;32.10;17.73;;;18.00;99.90;;;;;;5055518;28;20036;-56
2023/07/02 05:38:07;;;;;;;33.13;18.85;;;18.00;99.90;;;;;;5048022;28;20550;-56
2023/07/02 05:40:32;;;;;;;32.83;17.40;;;17.90;99.90;;;;;;5065818;28;20025;-56
2023/07/02 05:42:58;;;;;;;33.60;17.70;;;18.00;99.90;;;;;;5068530;28;20094;-56
2023/07/02 05:45:23;;;;;;;37.97;18.85;;;18.10;99.90;;;;;;5066679;28;20086;-56
2023/07/02 05:47:49;;;;;;;37.65;18.65;;;18.20;99.90;;;;;;5067947;28;20090;-56
2023/07/02 05:50:15;;;;;;;33.72;18.17;;;18.30;99.90;;;;;;5067899;28;20032;-56
2023/07/02 05:52:40;;;;;;;36.10;18.52;;;18.40;99.90;;;;;;5067984;28;20036;-55
2023/07/02 05:55:10;;;;;;;33.63;17.58;;;18.40;99.90;;;;;;5066921;28;20036;-56
2023/07/02 05:57:36;;;;;;;32.75;17.30;;;18.20;99.90;;;;;;5067244;28;20112;-56
2023/07/02 06:00:04;;;;;;;36.90;16.92;;;18.30;99.90;;;;;;5067712;28;20515;-56
2023/07/02 06:02:29;;;;;;;29.25;16.63;;;18.30;99.90;;;;;;5067394;28;20042;-56
2023/07/02 06:04:55;;;;;;;35.97;16.63;;;18.30;99.90;;;;;;5067384;28;20033;-56
2023/07/02 06:07:20;;;;;;;38.20;16.83;;;18.40;99.90;;;;;;5066139;28;20058;-56
2023/07/02 06:09:46;;;;;;;38.55;16.58;;;18.40;99.90;;;;;;5058789;28;20040;-56
2023/07/02 06:12:12;;;;;;;32.53;16.55;;;18.50;99.90;;;;;;5067618;28;20040;-56
2023/07/02 06:14:37;;;;;;;29.33;16.27;;;18.30;99.90;;;;;;5067223;28;20727;-56
2023/07/02 06:17:06;;;;;;;33.22;15.70;;;18.20;99.90;;;;;;5068266;28;20068;-56
2023/07/02 06:19:32;;;;;;;33.13;15.45;;;18.30;99.90;;;;;;5066228;28;20085;-56
2023/07/02 06:21:57;;;;;;;32.72;15.90;;;18.40;99.90;;;;;;5067409;28;20028;-55
2023/07/02 06:24:23;;;;;;;34.17;16.77;;;18.40;99.90;;;;;;5066275;28;20180;-56
2023/07/02 06:26:49;;;;;;;31.15;15.70;;;18.50;99.90;;;;;;5067124;28;20040;-56
2023/07/02 06:29:14;;;;;;;31.05;16.52;;;18.60;99.90;;;;;;5066507;28;20036;-56
2023/07/02 06:31:40;;;;;;;38.13;16.50;;;18.70;99.90;;;;;;5067278;28;20047;-56
2023/07/02 06:34:06;;;;;;;30.60;16.20;;;18.80;99.90;;;;;;5066680;28;20083;-56
2023/07/02 06:36:31;;;;;;;38.20;16.98;;;18.80;99.90;;;;;;5066963;28;20070;-56
2023/07/02 06:38:57;;;;;;;31.50;15.48;;;18.80;99.90;;;;;;5067200;28;20036;-56
2023/07/02 06:41:23;;;;;;;32.13;15.07;;;18.80;99.90;;;;;;5066178;28;20035;-56
2023/07/02 06:43:48;;;;;;;35.13;16.80;;;18.70;99.90;;;;;;5067034;28;20403;-56
2023/07/02 06:46:14;;;;;;;32.05;14.88;;;18.70;99.90;;;;;;5066244;28;20033;-56
2023/07/02 06:48:39;;;;;;;35.03;15.82;;;18.80;99.90;;;;;;5068613;28;20040;-56
2023/07/02 06:51:05;;;;;;;29.05;15.52;;;18.80;99.90;;;;;;5065702;28;20036;-56
2023/07/02 06:53:30;;;;;;;30.95;15.27;;;18.80;99.90;;;;;;5066576;28;20109;-57
2023/07/02 06:55:56;;;;;;;28.42;14.88;;;18.90;99.90;;;;;;5066486;28;20616;-56
2023/07/02 06:58:22;;;;;;;27.63;15.32;;;19.10;99.90;;;;;;5066720;28;20433;-56
2023/07/02 07:00:47;;;;;;;30.85;15.80;;;19.10;99.90;;;;;;5066436;28;20032;-56
2023/07/02 07:03:13;;;;;;;28.67;14.45;;;19.30;99.90;;;;;;5065266;28;20028;-56
2023/07/02 07:05:38;;;;;;;35.05;15.50;;;19.30;99.90;;;;;;5066356;28;20143;-55
2023/07/02 07:08:04;;;;;;;32.42;15.00;;;19.20;99.90;;;;;;5065969;28;20032;-56
2023/07/02 07:10:34;;;;;;;31.83;15.07;;;19.10;99.90;;;;;;5066091;28;20037;-56
2023/07/02 07:13:00;;;;;;;28.92;14.35;;;19.20;99.90;;;;;;5066424;28;20071;-55
2023/07/02 07:15:26;;;;;;;29.60;14.32;;;19.40;99.90;;;;;;5052110;28;20039;-56
2023/07/02 07:17:52;;;;;;;31.25;14.80;;;19.50;99.90;;;;;;5066322;28;20040;-56
2023/07/02 07:20:18;;;;;;;31.13;13.70;;;19.50;99.90;;;;;;5066053;28;20044;-56
2023/07/02 07:22:44;;;;;;;30.05;13.55;;;19.50;99.90;;;;;;5066649;28;20565;-55
2023/07/02 07:25:09;;;;;;;25.00;12.23;;;19.50;99.90;;;;;;5065001;28;20123;-55
2023/07/02 07:27:35;;;;;;;24.17;11.90;;;19.40;99.90;;;;;;5066021;28;20553;-56
2023/07/02 07:30:01;;;;;;;26.40;11.50;;;19.40;99.90;;;;;;5066174;28;20119;-56
2023/07/02 07:32:26;;;;;;;23.88;9.80;;;19.40;99.90;;;;;;5065856;28;20040;-56
2023/07/02 07:34:52;;;;;;;26.20;10.23;;;19.30;99.90;;;;;;5066262;28;20044;-55
2023/07/02 07:37:17;;;;;;;21.10;9.43;;;19.30;99.90;;;;;;5064951;28;20028;-56
2023/07/02 07:39:43;;;;;;;21.40;9.85;;;19.20;99.90;;;;;;5065827;28;20039;-56
2023/07/02 07:42:08;;;;;;;21.45;9.45;;;19.30;99.90;;;;;;5065615;28;20071;-56
2023/07/02 07:44:34;;;;;;;23.60;9.50;;;19.40;99.90;;;;;;5065982;28;20124;-56
2023/07/02 07:46:59;;;;;;;25.02;10.07;;;19.40;99.90;;;;;;5065368;28;20036;-56
2023/07/02 07:49:25;;;;;;;20.08;9.40;;;19.20;99.90;;;;;;5066355;28;20024;-55
2023/07/02 07:51:52;;;;;;;20.17;9.35;;;19.20;99.90;;;;;;5066127;28;20040;-56
2023/07/02 07:54:17;;;;;;;18.70;9.60;;;19.40;99.90;;;;;;5065866;28;20032;-56
2023/07/02 07:56:43;;;;;;;21.45;9.88;;;19.50;99.90;;;;;;5066193;28;20040;-56
2023/07/02 07:59:08;;;;;;;23.88;8.88;;;19.60;99.90;;;;;;5064903;28;20413;-56
2023/07/02 08:01:34;;;;;;;18.50;8.60;;;19.70;99.90;;;;;;5066303;28;20028;-56
2023/07/02 08:03:59;;;;;;;21.83;9.43;;;19.80;99.90;;;;;;5066275;28;20056;-56
2023/07/02 08:06:25;;;;;;;23.63;9.80;;;19.90;99.90;;;;;;5065903;28;20029;-55
2023/07/02 08:08:50;;;;;;;21.73;9.35;;;19.90;99.90;;;;;;5064793;28;20036;-56
2023/07/02 08:11:16;;;;;;;21.90;9.70;;;20.00;99.90;;;;;;5065669;28;20281;-56
2023/07/02 08:13:42;;;;;;;23.13;9.13;;;20.00;99.90;;;;;;5066543;28;20028;-56
2023/07/02 08:16:09;;;;;;;22.98;8.73;;;20.00;99.90;;;;;;5066966;28;20068;-56
2023/07/02 08:18:35;;;;;;;25.83;9.07;;;20.10;99.90;;;;;;5068468;28;20028;-55
2023/07/02 08:21:00;;;;;;;22.33;8.77;;;20.00;99.90;;;;;;5069320;28;20035;-56
2023/07/02 08:23:26;;;;;;;21.08;8.23;;;20.10;99.90;;;;;;5069439;28;20029;-56
2023/07/02 08:25:52;;;;;;;18.63;7.63;;;20.20;99.90;;;;;;5068757;28;20040;-56
2023/07/02 08:28:17;;;;;;;17.40;8.25;;;20.20;99.90;;;;;;5069429;28;20112;-55
2023/07/02 08:30:43;;;;;;;19.48;7.55;;;20.10;99.90;;;;;;5065364;28;20029;-56
2023/07/02 08:33:08;;;;;;;15.35;7.35;;;19.90;99.90;;;;;;5048645;28;20053;-56
2023/07/02 08:35:34;;;;;;;18.98;8.27;;;19.50;99.90;;;;;;5049508;28;20043;-56
2023/07/02 08:37:59;;;;;;;20.55;8.00;;;19.60;99.90;;;;;;5049471;28;20047;-56
2023/07/02 08:40:25;;;;;;;14.80;7.50;;;19.50;99.90;;;;;;5065395;28;20151;-56
2023/07/02 08:42:51;;;;;;;19.83;8.35;;;19.40;99.90;;;;;;5061557;28;20373;-56
2023/07/02 08:45:16;;;;;;;16.42;8.15;;;19.60;99.90;;;;;;5068648;28;20020;-56
2023/07/02 08:47:43;;;;;;;16.60;7.85;;;19.70;99.90;;;;;;5069220;28;20047;-56
2023/07/02 08:50:09;;;;;;;18.35;8.68;;;19.80;99.90;;;;;;5068712;28;20157;-56
2023/07/02 08:52:35;;;;;;;20.33;9.10;;;20.00;99.90;;;;;;5068392;28;20609;-56
2023/07/02 08:55:00;;;;;;;17.65;9.10;;;19.90;99.90;;;;;;5069130;28;20127;-56
2023/07/02 08:57:26;;;;;;;19.98;8.48;;;20.10;99.90;;;;;;5068681;28;20051;-56
2023/07/02 08:59:52;;;;;;;21.25;8.57;;;20.10;99.90;;;;;;5069301;28;20055;-56
2023/07/02 09:02:29;;;;;;;21.17;8.68;;;20.10;99.90;;;;;;5068565;28;20071;-56
2023/07/02 09:04:59;;;;;;;19.65;8.38;;;20.20;99.90;;;;;;5067608;28;20032;-56
2023/07/02 09:07:25;;;;;;;19.90;8.35;;;20.40;99.90;;;;;;5068463;28;20090;-56
2023/07/02 09:09:50;;;;;;;17.73;8.80;;;20.40;99.90;;;;;;5068933;28;20033;-56
2023/07/02 09:12:31;;;;;;;20.67;8.90;;;20.60;99.90;;;;;;5068592;28;20040;-55
2023/07/02 09:15:05;;;;;;;22.60;9.45;;;20.60;99.90;;;;;;5067989;28;20055;-55
2023/07/02 09:17:33;;;;;;;19.65;8.90;;;20.60;99.90;;;;;;5068008;28;20040;-56
2023/07/02 09:20:04;;;;;;;19.67;9.18;;;20.60;99.90;;;;;;5068302;28;20464;-55
2023/07/02 09:22:30;;;;;;;17.75;8.60;;;20.60;99.90;;;;;;5068620;28;20032;-56
2023/07/02 09:24:58;;;;;;;19.40;8.57;;;20.50;99.90;;;;;;5068243;28;20037;-56
2023/07/02 09:27:37;;;;;;;20.42;9.10;;;20.20;99.90;;;;;;5067468;28;20056;-56
2023/07/02 09:30:07;;;;;;;22.13;8.60;;;20.10;99.90;;;;;;5067209;28;20029;-56
2023/07/02 09:32:33;;;;;;;22.27;9.77;;;19.90;99.90;;;;;;5068070;28;20048;-55
2023/07/02 09:34:59;;;;;;;21.05;8.90;;;19.70;99.90;;;;;;5068292;28;20040;-55
2023/07/02 09:37:24;;;;;;;26.15;9.07;;;19.80;99.90;;;;;;5067579;28;20052;-56
2023/07/02 09:39:52;;;;;;;20.27;8.73;;;19.90;99.90;;;;;;5066872;28;20040;-56
2023/07/02 09:42:19;;;;;;;21.08;8.70;;;20.00;99.90;;;;;;5067956;28;20035;-56
2023/07/02 09:44:46;;;;;;;17.15;8.43;;;20.00;99.90;;;;;;5068294;28;20408;-55
2023/07/02 09:47:13;;;;;;;21.33;8.20;;;20.00;99.90;;;;;;5067528;28;20039;-55
2023/07/02 09:49:49;;;;;;;15.25;7.78;;;20.10;99.90;;;;;;5067597;28;20105;-56
2023/07/02 09:52:15;;;;;;;14.90;7.75;;;20.10;99.90;;;;;;5067687;28;20535;-56
2023/07/02 09:54:41;;;;;;;18.33;7.88;;;20.10;99.90;;;;;;5066309;28;20041;-56
2023/07/02 09:57:07;;;;;;;16.98;7.55;;;20.10;99.90;;;;;;5067689;28;20116;-56
2023/07/02 09:59:33;;;;;;;17.50;7.55;;;20.10;99.90;;;;;;5056680;28;20116;-56
2023/07/02 10:01:59;;;;;;;21.25;8.75;;;20.30;99.90;;;;;;5063279;28;20040;-56
2023/07/02 10:04:25;;;;;;;22.20;9.80;;;20.30;99.90;;;;;;5067000;28;20035;-55
2023/07/02 10:06:52;;;;;;;18.65;9.10;;;20.50;99.90;;;;;;5067698;28;20044;-56
2023/07/02 10:09:33;;;;;;;19.15;8.27;;;20.50;99.90;;;;;;5066620;28;20043;-56
2023/07/02 10:11:59;;;;;;;14.90;7.30;;;20.70;99.90;;;;;;5067761;28;20079;-56
2023/07/02 10:14:24;;;;;;;18.67;8.38;;;20.70;99.90;;;;;;5067140;28;20063;-55
2023/07/02 10:16:54;;;;;;;18.95;7.35;;;20.60;99.90;;;;;;5068517;28;20037;-56
2023/07/02 10:19:21;;;;;;;16.50;7.70;;;20.60;99.90;;;;;;5064906;28;20127;-56
2023/07/02 10:21:59;;;;;;;18.75;7.35;;;20.80;99.90;;;;;;5066334;28;20469;-56
2023/07/02 10:24:25;;;;;;;17.45;7.15;;;20.80;99.90;;;;;;5067061;28;20516;-56
2023/07/02 10:26:59;;;;;;;16.63;7.32;;;20.80;99.90;;;;;;5067558;28;20039;-57
2023/07/02 10:29:26;;;;;;;16.88;7.68;;;20.80;99.90;;;;;;5066897;28;20029;-56
2023/07/02 10:31:53;;;;;;;15.77;7.07;;;20.80;99.90;;;;;;5066695;28;20378;-55
2023/07/02 10:34:37;;;;;;;17.40;7.35;;;20.90;99.90;;;;;;5066593;28;20521;-56
2023/07/02 10:37:04;;;;;;;15.75;7.18;;;21.00;99.90;;;;;;5066762;28;20077;-56
2023/07/02 10:39:30;;;;;;;13.65;7.05;;;20.90;99.90;;;;;;5058247;28;20036;-55
2023/07/02 10:42:09;;;;;;;19.05;7.18;;;21.00;99.90;;;;;;5052853;28;20028;-56
2023/07/02 10:44:50;;;;;;;15.93;7.18;;;20.90;99.90;;;;;;5046943;28;20033;-56
2023/07/02 10:47:15;;;;;;;13.90;6.75;;;21.10;99.90;;;;;;5067212;28;20123;-56
2023/07/02 10:49:41;;;;;;;15.18;6.75;;;21.30;99.90;;;;;;5066679;28;20571;-56
2023/07/02 10:52:07;;;;;;;18.38;6.70;;;21.50;99.90;;;;;;5066701;28;20036;-56
2023/07/02 10:54:46;;;;;;;14.90;6.78;;;21.70;99.90;;;;;;5047336;28;20036;-56
2023/07/02 10:57:20;;;;;;;13.93;6.75;;;21.80;99.90;;;;;;5064174;28;20446;-55
2023/07/02 10:59:46;;;;;;;16.52;7.15;;;22.00;99.90;;;;;;5067125;28;20064;-56
2023/07/02 11:02:12;;;;;;;15.38;7.00;;;21.70;99.90;;;;;;5066409;28;20492;-56
2023/07/02 11:04:38;;;;;;;17.63;6.53;;;21.60;99.90;;;;;;5065236;28;20085;-56
2023/07/02 11:07:04;;;;;;;14.55;7.18;;;21.80;99.90;;;;;;5070504;28;20051;-56
2023/07/02 11:09:30;;;;;;;17.92;6.93;;;21.50;99.90;;;;;;5066728;28;20037;-56
2023/07/02 11:11:57;;;;;;;12.30;6.05;;;21.60;99.90;;;;;;5063965;28;20036;-56
2023/07/02 11:14:36;;;;;;;14.68;6.63;;;21.60;99.90;;;;;;5062621;28;20025;-56
2023/07/02 11:17:06;;;;;;;13.95;6.43;;;21.80;99.90;;;;;;5061559;28;20488;-56
2023/07/02 11:19:36;;;;;;;11.65;6.20;;;21.90;99.90;;;;;;5064357;28;20031;-56
2023/07/02 11:22:02;;;;;;;13.00;6.35;;;21.80;99.90;;;;;;5050454;28;20691;-55
2023/07/02 11:24:33;;;;;;;15.18;6.47;;;21.40;99.90;;;;;;5046904;28;20594;-55
2023/07/02 11:27:00;;;;;;;16.50;6.60;;;21.30;99.90;;;;;;5046495;28;20072;-55
2023/07/02 11:29:26;;;;;;;16.13;7.72;;;21.40;99.90;;;;;;5045511;28;20033;-56
2023/07/02 11:31:52;;;;;;;15.88;7.03;;;21.50;99.90;;;;;;5061306;28;20067;-55
2023/07/02 11:34:21;;;;;;;18.17;7.60;;;21.60;99.90;;;;;;5065188;28;20064;-56
2023/07/02 11:36:48;;;;;;;17.05;7.20;;;21.80;99.90;;;;;;5066049;28;20218;-56
2023/07/02 11:39:15;;;;;;;13.63;6.55;;;21.70;99.90;;;;;;5066048;28;20032;-56
2023/07/02 11:41:42;;;;;;;17.58;7.25;;;21.70;99.90;;;;;;5066330;28;20032;-56
2023/07/02 11:44:08;;;;;;;15.57;6.78;;;21.50;99.90;;;;;;5064906;28;20036;-55
2023/07/02 11:46:34;;;;;;;15.35;7.28;;;21.50;99.90;;;;;;5066542;28;20047;-56
2023/07/02 11:49:01;;;;;;;14.07;7.15;;;21.60;99.90;;;;;;5066308;28;20480;-55
2023/07/02 11:51:27;;;;;;;17.40;7.65;;;21.60;99.90;;;;;;5065862;28;20688;-55
2023/07/02 11:53:52;;;;;;;11.70;6.38;;;21.60;99.90;;;;;;5064242;28;20063;-56
2023/07/02 11:56:18;;;;;;;16.55;7.68;;;21.60;99.90;;;;;;5056960;28;20040;-56
2023/07/02 11:58:43;;;;;;;17.33;7.30;;;21.70;99.90;;;;;;5065757;28;20044;-56
2023/07/02 12:01:09;;;;;;;13.13;7.07;;;21.70;99.90;;;;;;5065551;28;20024;-56
2023/07/02 12:03:35;;;;;;;14.95;7.93;;;21.70;99.90;;;;;;5065792;28;20455;-56
2023/07/02 12:06:00;;;;;;;17.00;7.47;;;21.80;99.90;;;;;;5064911;28;20281;-56
2023/07/02 12:08:26;;;;;;;19.40;7.80;;;21.80;99.90;;;;;;5065717;28;20397;-55
2023/07/02 12:10:52;;;;;;;18.08;8.02;;;21.70;99.90;;;;;;5066066;28;20036;-56
2023/07/02 12:13:18;;;;;;;18.95;7.72;;;21.50;99.90;;;;;;5065481;28;20048;-56
2023/07/02 12:15:43;;;;;;;12.85;7.10;;;21.60;99.90;;;;;;5066435;28;20032;-56
2023/07/02 12:18:09;;;;;;;16.38;8.10;;;21.70;99.90;;;;;;5063139;28;20140;-55
2023/07/02 12:20:35;;;;;;;21.02;7.82;;;21.80;99.90;;;;;;5065234;28;20084;-56
2023/07/02 12:23:01;;;;;;;17.38;7.68;;;22.10;99.90;;;;;;5065590;28;20025;-56
2023/07/02 12:25:27;;;;;;;17.50;7.65;;;21.90;99.90;;;;;;5065077;28;20029;-56
2023/07/02 12:27:53;;;;;;;15.50;7.95;;;22.10;99.90;;;;;;5064786;28;20040;-55
2023/07/02 12:30:18;;;;;;;20.80;8.60;;;22.10;99.90;;;;;;5065447;28;20029;-55